Time;durP1;ratioP1;P1;durP2;ratioP2;P2;SDS_P1;SDS_P2;PMS_P1;PMS_P2;Temp;Humidity;BMP_temperature;BMP_pressure;BME280_temperature;BME280_humidity;BME280_pressure;Samples;Min_cycle;Max_cycle;Signal;HPM_P1;HPM_P2
2023/08/14 00:01:46;;;;;;;2.77;2.00;;;;;;;18.95;92.16;100522.88;5072657;28;20259;-76
2023/08/14 00:04:13;;;;;;;3.30;1.50;;;;;;;18.95;92.18;100509.66;5072442;28;20585;-76
2023/08/14 00:06:39;;;;;;;1.73;1.50;;;;;;;18.92;92.76;100508.94;5072223;28;20282;-76
2023/08/14 00:09:06;;;;;;;8.53;2.90;;;;;;;18.87;92.27;100509.19;5072698;28;20681;-76
2023/08/14 00:11:34;;;;;;;1.33;1.23;;;;;;;18.80;92.04;100513.94;5072208;28;20230;-76
2023/08/14 00:14:00;;;;;;;2.53;1.80;;;;;;;18.83;92.29;100512.94;5071432;28;20204;-76
2023/08/14 00:16:27;;;;;;;3.83;1.90;;;;;;;18.81;92.61;100513.00;5072357;28;20204;-76
2023/08/14 00:18:54;;;;;;;2.97;1.90;;;;;;;18.80;93.20;100503.34;5071989;28;20212;-76
2023/08/14 00:21:20;;;;;;;1.93;1.50;;;;;;;18.79;92.34;100528.09;5072096;28;20252;-76
2023/08/14 00:23:47;;;;;;;3.33;2.10;;;;;;;18.77;91.73;100537.88;5071823;28;20575;-76
2023/08/14 00:26:13;;;;;;;2.30;1.60;;;;;;;18.70;91.92;100547.06;5071859;28;20657;-76
2023/08/14 00:28:41;;;;;;;3.00;1.90;;;;;;;18.66;92.34;100541.06;5071666;28;20591;-76
2023/08/14 00:31:07;;;;;;;2.53;1.90;;;;;;;18.63;92.93;100522.72;5072025;28;20223;-76
2023/08/14 00:33:34;;;;;;;3.53;1.50;;;;;;;18.65;92.97;100528.78;5072164;28;20203;-76
2023/08/14 00:36:01;;;;;;;3.93;1.90;;;;;;;18.66;92.84;100519.91;5071926;28;20204;-76
2023/08/14 00:38:27;;;;;;;1.80;1.43;;;;;;;18.62;92.95;100523.63;5071520;28;20211;-76
2023/08/14 00:40:54;;;;;;;2.07;1.87;;;;;;;18.61;92.95;100529.88;5071684;28;20786;-76
2023/08/14 00:43:21;;;;;;;2.57;2.20;;;;;;;18.59;93.08;100521.16;5071390;28;20232;-76
2023/08/14 00:45:52;;;;;;;4.10;1.90;;;;;;;18.55;93.08;100524.03;5071572;28;20275;-76
2023/08/14 00:48:19;;;;;;;5.17;1.70;;;;;;;18.48;93.24;100523.50;5071566;28;20601;-76
2023/08/14 00:50:46;;;;;;;5.13;1.67;;;;;;;18.51;93.23;100518.03;5065325;28;20236;-76
2023/08/14 00:53:14;;;;;;;3.87;1.87;;;;;;;18.46;94.17;100507.69;5051946;28;20203;-76
2023/08/14 00:55:41;;;;;;;4.00;1.80;;;;;;;18.46;94.79;100494.50;5051790;28;20261;-76
2023/08/14 00:58:07;;;;;;;2.50;1.57;;;;;;;18.48;94.34;100490.94;5051641;28;20697;-76
2023/08/14 01:00:35;;;;;;;3.03;1.70;;;;;;;18.47;94.28;100490.06;5071540;28;20219;-76
2023/08/14 01:03:03;;;;;;;3.30;1.97;;;;;;;18.43;94.56;100494.66;5071369;28;20718;-76
2023/08/14 01:05:30;;;;;;;3.07;2.07;;;;;;;18.39;95.02;100481.66;5071209;28;20207;-77
2023/08/14 01:07:56;;;;;;;2.53;2.33;;;;;;;18.37;94.91;100483.53;5063888;28;20582;-77
2023/08/14 01:10:27;;;;;;;2.07;1.83;;;;;;;18.38;94.40;100485.25;5052083;28;20258;-76
2023/08/14 01:13:01;;;;;;;3.23;1.77;;;;;;;18.40;94.01;100502.72;5051162;28;20573;-76
2023/08/14 01:15:32;;;;;;;3.27;1.87;;;;;;;18.45;93.16;100518.34;5051602;28;20566;-77
2023/08/14 01:18:03;;;;;;;4.67;1.93;;;;;;;18.42;93.36;100522.00;5051423;28;20212;-76
2023/08/14 01:20:33;;;;;;;3.10;1.70;;;;;;;18.41;93.48;100522.97;5051053;28;20208;-76
2023/08/14 01:23:18;;;;;;;2.20;1.60;;;;;;;18.35;92.95;100527.69;5051366;28;20231;-76
2023/08/14 01:25:46;;;;;;;2.30;2.10;;;;;;;18.33;91.89;100542.75;5051521;28;20207;-76
2023/08/14 01:28:13;;;;;;;3.77;2.20;;;;;;;18.26;91.66;100556.28;5050606;28;20212;-76
2023/08/14 01:30:40;;;;;;;2.33;2.10;;;;;;;18.26;91.63;100561.56;5064880;28;20224;-76
2023/08/14 01:33:07;;;;;;;2.00;1.90;;;;;;;18.28;91.64;100572.06;5071447;28;20538;-77
2023/08/14 01:35:39;;;;;;;3.67;2.27;;;;;;;18.19;91.92;100575.13;5071196;28;20201;-76
2023/08/14 01:38:14;;;;;;;4.30;2.07;;;;;;;18.20;92.13;100558.38;5070792;28;20676;-77
2023/08/14 01:40:51;;;;;;;6.23;2.50;;;;;;;18.17;92.74;100554.06;5071246;28;20203;-77
2023/08/14 01:43:25;;;;;;;2.10;1.93;;;;;;;18.14;93.25;100540.19;5070256;28;20733;-77
2023/08/14 01:45:53;;;;;;;3.00;2.57;;;;;;;18.08;93.74;100527.25;5071440;28;20680;-77
2023/08/14 01:48:22;;;;;;;3.07;2.60;;;;;;;18.14;94.11;100521.69;5071010;28;20211;-76
2023/08/14 01:50:49;;;;;;;2.03;1.90;;;;;;;18.14;94.44;100508.47;5071118;28;20650;-76
2023/08/14 01:53:16;;;;;;;3.53;2.90;;;;;;;17.90;95.13;100484.09;5070831;28;20212;-77
2023/08/14 01:55:43;;;;;;;3.13;2.50;;;;;;;17.83;96.04;100481.75;5071017;28;20238;-77
2023/08/14 01:58:11;;;;;;;3.00;2.70;;;;;;;17.92;95.87;100472.56;5056886;28;20210;-76
2023/08/14 02:00:37;;;;;;;5.57;2.70;;;;;;;17.97;96.11;100469.66;5073514;28;20214;-76
2023/08/14 02:03:05;;;;;;;5.73;2.40;;;;;;;18.01;95.89;100464.16;5074866;28;20223;-77
2023/08/14 02:05:31;;;;;;;5.33;3.23;;;;;;;17.98;95.70;100476.69;5066250;28;20210;-77
2023/08/14 02:07:57;;;;;;;4.67;2.30;;;;;;;18.04;95.58;100469.28;5074603;28;20583;-77
2023/08/14 02:10:24;;;;;;;3.33;2.10;;;;;;;17.80;95.61;100481.00;5074467;28;20575;-76
2023/08/14 02:12:50;;;;;;;3.27;2.10;;;;;;;17.75;97.04;100459.28;5074613;28;20194;-76
2023/08/14 02:15:20;;;;;;;3.83;2.30;;;;;;;17.83;96.86;100455.34;5074203;28;20215;-76
2023/08/14 02:17:47;;;;;;;2.70;2.07;;;;;;;17.95;96.41;100459.19;5074410;28;20563;-76
2023/08/14 02:20:13;;;;;;;4.60;2.20;;;;;;;18.00;96.17;100462.47;5074026;28;20208;-76
2023/08/14 02:22:39;;;;;;;4.47;2.07;;;;;;;17.99;95.86;100468.66;5074343;28;20232;-76
2023/08/14 02:25:06;;;;;;;5.00;2.87;;;;;;;18.03;95.58;100478.13;5074620;28;20211;-76
2023/08/14 02:27:33;;;;;;;3.03;2.20;;;;;;;18.06;95.08;100487.72;5066397;28;20202;-76
2023/08/14 02:29:59;;;;;;;2.73;2.40;;;;;;;17.99;95.48;100479.22;5073958;28;20233;-76
2023/08/14 02:32:27;;;;;;;9.10;2.50;;;;;;;17.94;95.95;100472.44;5074208;28;20229;-76
2023/08/14 02:34:55;;;;;;;2.93;2.23;;;;;;;17.87;96.40;100458.69;5074010;28;20231;-76
2023/08/14 02:37:22;;;;;;;2.60;2.13;;;;;;;17.87;95.81;100463.97;5073771;28;20211;-76
2023/08/14 02:39:49;;;;;;;2.43;1.70;;;;;;;17.81;96.14;100459.81;5074279;28;20206;-76
2023/08/14 02:42:16;;;;;;;4.37;2.17;;;;;;;17.81;96.17;100458.97;5073951;28;20313;-76
2023/08/14 02:44:43;;;;;;;4.83;2.50;;;;;;;17.84;95.85;100459.72;5073932;28;20672;-76
2023/08/14 02:47:10;;;;;;;2.10;1.70;;;;;;;17.91;95.47;100470.81;5074033;28;20204;-76
2023/08/14 02:49:38;;;;;;;2.30;1.73;;;;;;;18.05;94.35;100488.63;5073732;28;20203;-76
2023/08/14 02:52:04;;;;;;;1.97;1.87;;;;;;;17.93;94.85;100495.38;5073419;28;20641;-76
2023/08/14 02:54:31;;;;;;;3.10;2.03;;;;;;;18.15;94.20;100494.31;5073992;28;20206;-76
2023/08/14 02:56:57;;;;;;;3.43;1.70;;;;;;;18.16;93.68;100499.53;5073674;28;20203;-76
2023/08/14 02:59:24;;;;;;;1.90;1.60;;;;;;;18.19;93.77;100509.09;5073154;28;20236;-76
2023/08/14 03:01:51;;;;;;;3.90;1.90;;;;;;;18.22;93.05;100516.88;5073874;28;20240;-76
2023/08/14 03:04:18;;;;;;;4.60;2.20;;;;;;;18.10;93.28;100522.78;5073358;28;20339;-76
2023/08/14 03:06:46;;;;;;;3.90;2.07;;;;;;;17.83;96.01;100473.84;5073207;28;20692;-76
2023/08/14 03:09:12;;;;;;;3.10;2.10;;;;;;;17.75;97.16;100444.28;5073295;28;20210;-76
2023/08/14 03:11:39;;;;;;;2.10;1.90;;;;;;;17.79;97.58;100426.50;5073772;28;20220;-76
2023/08/14 03:14:05;;;;;;;3.00;2.03;;;;;;;17.73;98.45;100408.34;5073276;28;20659;-76
2023/08/14 03:16:32;;;;;;;2.93;1.70;;;;;;;17.73;98.58;100397.78;5073492;28;20210;-76
2023/08/14 03:18:58;;;;;;;23.83;2.63;;;;;;;17.73;98.75;100401.25;5073052;28;20203;-76
2023/08/14 03:21:25;;;;;;;1.80;1.50;;;;;;;17.72;98.47;100396.03;5073299;28;20223;-76
2023/08/14 03:23:53;;;;;;;3.13;2.00;;;;;;;17.71;98.34;100410.19;5073296;28;20228;-76
2023/08/14 03:26:19;;;;;;;4.23;2.30;;;;;;;17.70;98.31;100411.97;5073138;28;20699;-76
2023/08/14 03:28:46;;;;;;;2.27;1.80;;;;;;;17.73;97.91;100416.25;5072423;28;20204;-76
2023/08/14 03:31:13;;;;;;;2.60;1.77;;;;;;;17.78;97.46;100425.66;5073161;28;20600;-76
2023/08/14 03:33:39;;;;;;;1.90;1.80;;;;;;;17.82;97.04;100435.13;5072755;28;20212;-76
2023/08/14 03:36:06;;;;;;;2.60;2.13;;;;;;;17.84;96.11;100448.31;5073350;28;20215;-76
2023/08/14 03:38:32;;;;;;;3.13;2.20;;;;;;;17.88;95.22;100462.19;5069756;28;20674;-76
2023/08/14 03:41:00;;;;;;;2.30;1.87;;;;;;;17.87;94.53;100479.81;5053118;28;20630;-76
2023/08/14 03:43:27;;;;;;;4.70;2.43;;;;;;;17.85;94.38;100484.31;5071005;28;20231;-76
2023/08/14 03:45:53;;;;;;;4.43;1.70;;;;;;;17.83;94.31;100484.41;5072984;28;20199;-76
2023/08/14 03:48:20;;;;;;;5.40;2.07;;;;;;;17.79;94.58;100479.31;5072409;28;20212;-76
2023/08/14 03:50:47;;;;;;;2.10;2.00;;;;;;;17.83;94.06;100492.31;5072265;28;20599;-76
2023/08/14 03:53:13;;;;;;;2.10;1.93;;;;;;;17.81;93.73;100496.78;5072848;28;20289;-76
2023/08/14 03:55:40;;;;;;;9.40;1.87;;;;;;;17.73;94.32;100495.47;5072878;28;20198;-76
2023/08/14 03:58:08;;;;;;;3.07;1.80;;;;;;;17.65;94.49;100486.09;5072285;28;20210;-76
2023/08/14 04:00:35;;;;;;;2.67;2.47;;;;;;;17.62;94.83;100477.47;5072401;28;20223;-76
2023/08/14 04:03:02;;;;;;;7.27;2.90;;;;;;;17.74;94.81;100478.66;5072420;28;20226;-76
2023/08/14 04:05:28;;;;;;;2.63;2.30;;;;;;;17.60;94.74;100484.59;5072441;28;20233;-76
2023/08/14 04:07:55;;;;;;;3.77;2.43;;;;;;;17.37;96.64;100452.25;5072027;28;20573;-76
2023/08/14 04:10:21;;;;;;;2.60;2.40;;;;;;;17.14;99.41;100400.56;5072617;28;20218;-76
2023/08/14 04:12:50;;;;;;;2.43;2.03;;;;;;;17.35;99.18;100390.78;5072428;28;20225;-76
2023/08/14 04:15:19;;;;;;;4.43;2.47;;;;;;;17.46;97.85;100409.59;5071959;28;20209;-76
2023/08/14 04:17:45;;;;;;;3.30;2.03;;;;;;;17.59;97.18;100424.84;5072517;28;20202;-76
2023/08/14 04:20:12;;;;;;;3.00;2.47;;;;;;;17.66;96.33;100440.31;5071100;28;20215;-76
2023/08/14 04:22:38;;;;;;;5.33;2.50;;;;;;;17.69;95.55;100455.13;5072049;28;20216;-76
2023/08/14 04:25:06;;;;;;;4.20;2.83;;;;;;;17.66;95.50;100461.44;5072313;28;20205;-76
2023/08/14 04:27:32;;;;;;;2.93;1.93;;;;;;;17.70;95.62;100458.63;5071920;28;20207;-76
2023/08/14 04:29:59;;;;;;;3.43;2.07;;;;;;;17.79;95.33;100456.41;5065427;28;20568;-76
2023/08/14 04:32:27;;;;;;;5.03;2.10;;;;;;;17.82;94.73;100468.63;5052115;28;20238;-76
2023/08/14 04:34:53;;;;;;;3.27;2.83;;;;;;;17.86;93.94;100484.25;5051802;28;20209;-76
2023/08/14 04:37:20;;;;;;;4.07;2.23;;;;;;;17.91;93.53;100499.03;5052068;28;20619;-76
2023/08/14 04:39:46;;;;;;;2.00;1.90;;;;;;;17.94;93.98;100498.84;5052130;28;20215;-76
2023/08/14 04:42:13;;;;;;;5.30;2.50;;;;;;;17.97;93.70;100498.72;5067630;28;20234;-76
2023/08/14 04:44:39;;;;;;;3.53;2.70;;;;;;;17.98;93.35;100505.72;5070828;28;20227;-76
2023/08/14 04:47:06;;;;;;;4.37;2.93;;;;;;;17.85;93.81;100506.31;5072046;28;20606;-76
2023/08/14 04:49:33;;;;;;;21.07;2.37;;;;;;;17.82;94.85;100479.19;5071546;28;20210;-76
2023/08/14 04:52:00;;;;;;;2.83;2.17;;;;;;;17.95;94.39;100482.94;5071625;28;20244;-76
2023/08/14 04:54:27;;;;;;;2.73;1.80;;;;;;;17.96;94.32;100481.19;5071718;28;20683;-76
2023/08/14 04:56:53;;;;;;;3.03;2.40;;;;;;;17.97;94.58;100477.59;5071621;28;20234;-76
2023/08/14 04:59:20;;;;;;;2.17;2.07;;;;;;;17.82;95.40;100468.63;5070916;28;20214;-76
2023/08/14 05:01:46;;;;;;;2.00;1.90;;;;;;;17.78;95.90;100453.81;5071804;28;20232;-76
2023/08/14 05:04:13;;;;;;;2.40;2.17;;;;;;;17.76;96.04;100450.41;5071517;28;20226;-76
2023/08/14 05:06:41;;;;;;;3.63;1.80;;;;;;;17.76;96.72;100437.19;5071533;28;20664;-76
2023/08/14 05:09:07;;;;;;;3.67;2.53;;;;;;;17.76;96.82;100432.81;5064828;28;20215;-76
2023/08/14 05:11:34;;;;;;;2.60;1.97;;;;;;;17.80;97.10;100434.34;5065541;28;20739;-76
2023/08/14 05:14:00;;;;;;;3.07;2.60;;;;;;;17.84;97.65;100425.38;5065678;28;20210;-76
2023/08/14 05:16:27;;;;;;;4.13;2.60;;;;;;;17.96;97.46;100421.28;5063398;28;20217;-76
2023/08/14 05:18:53;;;;;;;2.00;1.80;;;;;;;18.15;96.83;100431.75;5065581;28;20560;-76
2023/08/14 05:21:20;;;;;;;2.80;2.40;;;;;;;18.21;96.38;100447.31;5065373;28;20233;-76
2023/08/14 05:23:47;;;;;;;3.73;2.50;;;;;;;18.32;97.39;100430.06;5065559;28;20220;-76
2023/08/14 05:26:14;;;;;;;2.30;1.77;;;;;;;18.33;97.63;100429.13;5063568;28;20696;-76
2023/08/14 05:28:40;;;;;;;3.77;2.90;;;;;;;18.37;96.94;100434.16;5064428;28;20222;-76
2023/08/14 05:31:08;;;;;;;3.43;2.87;;;;;;;18.35;96.62;100443.94;5073120;28;20238;-76
2023/08/14 05:33:34;;;;;;;3.93;2.10;;;;;;;18.39;96.48;100449.94;5073079;28;20208;-76
2023/08/14 05:36:01;;;;;;;1.70;1.60;;;;;;;18.45;96.42;100453.16;5074850;28;20221;-76
2023/08/14 05:38:27;;;;;;;3.33;2.23;;;;;;;18.48;96.52;100449.47;5074005;28;20664;-76
2023/08/14 05:40:55;;;;;;;5.30;2.43;;;;;;;18.54;96.71;100437.75;5074753;28;20219;-76
2023/08/14 05:43:21;;;;;;;2.87;1.70;;;;;;;18.55;97.27;100427.09;5073692;28;20576;-76
2023/08/14 05:45:50;;;;;;;3.30;2.53;;;;;;;18.60;97.90;100422.41;5074863;28;20211;-76
2023/08/14 05:48:16;;;;;;;1.77;1.60;;;;;;;18.68;98.25;100410.56;5074644;28;20218;-76
2023/08/14 05:50:43;;;;;;;6.27;2.87;;;;;;;18.68;96.63;100429.09;5074051;28;20211;-76
2023/08/14 05:53:10;;;;;;;5.20;2.33;;;;;;;18.77;99.44;100396.84;5073696;28;20211;-76
2023/08/14 05:55:38;;;;;;;5.17;2.53;;;;;;;18.87;99.62;100378.72;5073575;28;20207;-76
2023/08/14 05:58:06;;;;;;;3.63;2.10;;;;;;;18.99;100.00;100375.44;5073148;28;20571;-76
2023/08/14 06:00:34;;;;;;;3.67;2.10;;;;;;;19.01;100.00;100374.41;5073239;28;20223;-76
2023/08/14 06:03:01;;;;;;;7.07;2.10;;;;;;;19.03;98.45;100404.25;5073977;28;20215;-76
2023/08/14 06:05:28;;;;;;;5.73;2.10;;;;;;;18.96;97.95;100420.56;5070759;28;20227;-76
2023/08/14 06:07:55;;;;;;;3.00;2.23;;;;;;;18.98;99.08;100402.81;5073140;28;20204;-76
2023/08/14 06:10:22;;;;;;;3.37;1.97;;;;;;;19.07;99.04;100407.59;5073174;28;20555;-76
2023/08/14 06:12:49;;;;;;;4.43;1.90;;;;;;;19.03;99.38;100404.25;5068977;28;20227;-76
2023/08/14 06:15:19;;;;;;;2.40;2.20;;;;;;;19.06;99.35;100403.22;5073904;28;20265;-76
2023/08/14 06:17:46;;;;;;;3.43;2.03;;;;;;;19.05;98.55;100412.13;5074416;28;20541;-76
2023/08/14 06:20:13;;;;;;;2.47;2.13;;;;;;;19.02;98.23;100423.72;5069389;28;20212;-76
2023/08/14 06:22:40;;;;;;;3.17;1.77;;;;;;;19.12;98.44;100424.06;5069150;28;20732;-76
2023/08/14 06:25:08;;;;;;;1.80;1.67;;;;;;;19.12;97.84;100436.44;5071169;28;20320;-76
2023/08/14 06:27:35;;;;;;;3.67;2.63;;;;;;;19.13;98.84;100436.38;5074162;28;20264;-76
2023/08/14 06:30:01;;;;;;;3.93;2.00;;;;;;;19.16;100.00;100412.38;5070341;28;20211;-76
2023/08/14 06:32:30;;;;;;;4.00;1.87;;;;;;;19.21;100.00;100383.03;5066713;28;20232;-76
2023/08/14 06:34:56;;;;;;;2.43;2.00;;;;;;;19.18;100.00;100385.81;5068717;28;20204;-76
2023/08/14 06:37:22;;;;;;;2.60;2.17;;;;;;;19.30;100.00;100385.13;5067030;28;20199;-76
2023/08/14 06:39:49;;;;;;;2.00;1.80;;;;;;;19.33;100.00;100386.78;5068241;28;20200;-76
2023/08/14 06:42:15;;;;;;;2.20;2.00;;;;;;;19.52;100.00;100350.34;5066660;28;20228;-75
2023/08/14 06:44:42;;;;;;;5.37;2.00;;;;;;;19.70;100.00;100347.56;5066900;28;20229;-76
2023/08/14 06:47:08;;;;;;;2.20;1.73;;;;;;;19.86;100.00;100374.94;5068618;28;20212;-76
2023/08/14 06:49:36;;;;;;;2.80;2.10;;;;;;;20.01;100.00;100387.25;5065830;28;20200;-76
2023/08/14 06:52:03;;;;;;;2.73;1.90;;;;;;;19.95;100.00;100371.72;5071135;28;20730;-76
2023/08/14 06:54:30;;;;;;;2.00;1.90;;;;;;;20.07;100.00;100379.88;5073769;28;20222;-76
2023/08/14 06:56:56;;;;;;;2.67;1.80;;;;;;;20.06;96.77;100415.28;5073759;28;20215;-77
2023/08/14 06:59:23;;;;;;;2.10;1.90;;;;;;;20.22;96.90;100447.91;5073362;28;20580;-76
2023/08/14 07:01:49;;;;;;;2.47;1.90;;;;;;;20.29;97.27;100451.88;5079007;28;20235;-76
2023/08/14 07:04:16;;;;;;;1.70;1.60;;;;;;;20.29;92.04;100519.97;5058917;28;20232;-76
2023/08/14 07:06:44;;;;;;;1.53;1.43;;;;;;;20.46;87.98;100603.84;5053296;28;20215;-76
2023/08/14 07:09:14;;;;;;;1.67;1.57;;;;;;;20.55;84.93;100686.34;5053900;28;20209;-76
2023/08/14 07:11:40;;;;;;;2.10;1.90;;;;;;;20.71;88.44;100653.69;5071380;28;20234;-76
2023/08/14 07:14:07;;;;;;;2.30;1.47;;;;;;;20.76;85.02;100702.88;5073135;28;20211;-76
2023/08/14 07:16:36;;;;;;;2.40;1.97;;;;;;;20.85;82.98;100748.41;5073474;28;20206;-76
2023/08/14 07:19:02;;;;;;;1.77;1.67;;;;;;;20.96;84.11;100751.31;5073295;28;20202;-76
2023/08/14 07:21:29;;;;;;;1.60;1.50;;;;;;;21.07;81.62;100782.53;5073463;28;20224;-75
2023/08/14 07:23:57;;;;;;;1.63;1.53;;;;;;;21.13;80.65;100820.22;5053006;28;20260;-76
2023/08/14 07:26:24;;;;;;;1.73;1.30;;;;;;;21.26;80.55;100814.19;5053364;28;20220;-78
2023/08/14 07:28:50;;;;;;;1.70;1.43;;;;;;;21.39;81.27;100816.06;5052711;28;20206;-76
2023/08/14 07:31:17;;;;;;;1.93;1.80;;;;;;;21.48;81.59;100796.09;5053287;28;20232;-77
2023/08/14 07:33:43;;;;;;;2.70;1.90;;;;;;;21.56;83.90;100745.16;5053267;28;20218;-77
2023/08/14 07:36:10;;;;;;;1.73;1.63;;;;;;;21.61;85.30;100700.59;5066600;28;20204;-75
2023/08/14 07:38:36;;;;;;;1.87;1.70;;;;;;;21.69;84.98;100687.69;5072685;28;20204;-75
2023/08/14 07:41:04;;;;;;;3.90;2.23;;;;;;;21.63;85.80;100669.47;5072894;28;20229;-76
2023/08/14 07:43:31;;;;;;;2.57;1.90;;;;;;;21.53;84.75;100671.84;5072806;28;20208;-77
2023/08/14 07:45:57;;;;;;;2.37;2.10;;;;;;;21.58;85.43;100674.19;5073132;28;20224;-76
2023/08/14 07:48:24;;;;;;;3.27;1.60;;;;;;;21.60;85.86;100667.88;5072583;28;20211;-76
2023/08/14 07:50:53;;;;;;;3.27;2.10;;;;;;;21.56;86.18;100660.16;5072471;28;20717;-76
2023/08/14 07:53:22;;;;;;;4.60;1.90;;;;;;;21.63;86.01;100652.69;5072182;28;20259;-75
2023/08/14 07:55:49;;;;;;;2.17;1.97;;;;;;;21.70;86.38;100656.66;5072516;28;20202;-74
2023/08/14 07:58:17;;;;;;;2.77;2.03;;;;;;;;;;5072012;28;20262;-75
2023/08/14 08:00:44;;;;;;;1.80;1.70;;;;;;;21.72;82.56;100698.09;5072086;28;20211;-74
2023/08/14 08:03:11;;;;;;;4.30;2.07;;;;;;;21.81;82.58;100704.69;5072324;28;20210;-74
2023/08/14 08:05:37;;;;;;;2.23;1.90;;;;;;;21.87;84.18;100683.03;5071983;28;20236;-74
2023/08/14 08:08:05;;;;;;;2.10;1.77;;;;;;;21.87;83.84;100696.31;5072113;28;20964;-74
2023/08/14 08:10:31;;;;;;;4.73;2.00;;;;;;;21.95;83.88;100693.19;5072233;28;20582;-74
2023/08/14 08:12:57;;;;;;;7.53;2.00;;;;;;;22.02;82.29;100716.63;5071684;28;20210;-74
2023/08/14 08:15:25;;;;;;;2.00;1.90;;;;;;;22.09;82.15;100721.56;5072398;28;20205;-74
2023/08/14 08:17:52;;;;;;;2.90;1.67;;;;;;;21.99;80.26;100747.88;5072833;28;20212;-73
2023/08/14 08:20:18;;;;;;;2.30;1.80;;;;;;;22.04;81.36;100750.25;5072539;28;20205;-73
2023/08/14 08:22:45;;;;;;;2.70;2.50;;;;;;;22.16;81.55;100746.81;5072349;28;20232;-74
2023/08/14 08:25:11;;;;;;;3.53;2.53;;;;;;;22.26;80.58;100749.78;5072255;28;20705;-74
2023/08/14 08:27:38;;;;;;;1.63;1.53;;;;;;;22.40;80.89;100766.59;5071894;28;20246;-74
2023/08/14 08:30:05;;;;;;;2.63;1.80;;;;;;;22.47;78.46;100806.09;5071962;28;20208;-74
2023/08/14 08:32:33;;;;;;;2.80;1.97;;;;;;;22.64;77.72;100829.00;5071939;28;20346;-74
2023/08/14 08:34:59;;;;;;;2.97;1.80;;;;;;;22.72;78.58;100835.53;5071515;28;20205;-74
2023/08/14 08:37:26;;;;;;;1.63;1.50;;;;;;;22.79;78.19;100826.22;5071996;28;20211;-75
2023/08/14 08:39:52;;;;;;;2.80;1.70;;;;;;;22.87;76.55;100873.63;5071872;28;20205;-74
2023/08/14 08:42:19;;;;;;;1.60;1.40;;;;;;;23.03;75.61;100881.50;5072222;28;20235;-74
2023/08/14 08:44:46;;;;;;;1.73;1.63;;;;;;;23.20;75.61;100899.91;5070296;28;20220;-75
2023/08/14 08:47:17;;;;;;;2.17;1.97;;;;;;;23.36;76.38;100874.97;5071140;28;20620;-75
2023/08/14 08:49:45;;;;;;;2.63;1.63;;;;;;;23.51;76.99;100844.63;5071074;28;20617;-74
2023/08/14 08:52:12;;;;;;;2.90;1.70;;;;;;;23.59;74.92;100884.09;5071352;28;20231;-75
2023/08/14 08:54:40;;;;;;;2.57;1.60;;;;;;;23.60;75.01;100885.81;5071006;28;20217;-75
2023/08/14 08:57:07;;;;;;;3.77;1.80;;;;;;;23.69;72.10;100932.34;5071230;28;20688;-75
2023/08/14 08:59:34;;;;;;;1.87;1.77;;;;;;;23.77;71.42;100962.88;5069601;28;20582;-74
2023/08/14 09:02:01;;;;;;;2.43;1.50;;;;;;;23.83;71.74;100982.09;5066464;28;20247;-75
2023/08/14 09:04:27;;;;;;;2.10;1.53;;;;;;;23.92;72.17;100984.13;5063533;28;20228;-75
2023/08/14 09:06:56;;;;;;;2.73;1.80;;;;;;;23.88;72.39;100962.16;5067103;28;20210;-75
2023/08/14 09:09:23;;;;;;;1.80;1.60;;;;;;;23.73;71.68;100961.34;5071463;28;20541;-75
2023/08/14 09:11:49;;;;;;;1.57;1.43;;;;;;;23.74;73.18;100935.53;5071369;28;20565;-75
2023/08/14 09:14:17;;;;;;;1.70;1.60;;;;;;;23.74;70.71;100979.03;5070665;28;20200;-75
2023/08/14 09:16:44;;;;;;;2.43;1.80;;;;;;;23.77;72.39;100922.88;5071439;28;20297;-75
2023/08/14 09:19:14;;;;;;;3.00;2.00;;;;;;;23.70;71.32;100950.03;5071054;28;20247;-75
2023/08/14 09:21:43;;;;;;;2.23;2.03;;;;;;;23.76;73.65;100913.13;5071036;28;20228;-75
2023/08/14 09:24:13;;;;;;;2.47;2.23;;;;;;;23.84;74.44;100859.34;5051549;28;20217;-75
2023/08/14 09:26:42;;;;;;;1.83;1.40;;;;;;;23.87;71.17;100952.47;5051073;28;20206;-74
2023/08/14 09:29:08;;;;;;;1.60;1.47;;;;;;;23.89;70.19;100985.22;5050466;28;20212;-75
2023/08/14 09:31:35;;;;;;;2.10;1.87;;;;;;;23.87;70.29;101005.78;5060464;28;20558;-75
2023/08/14 09:34:02;;;;;;;1.73;1.37;;;;;;;24.02;72.78;100899.03;5067201;28;20608;-75
2023/08/14 09:36:34;;;;;;;1.97;1.77;;;;;;;24.00;68.91;100997.81;5068008;28;20215;-74
2023/08/14 09:39:01;;;;;;;2.00;1.63;;;;;;;24.14;69.37;101019.13;5071265;28;20247;-74
2023/08/14 09:41:31;;;;;;;1.67;1.57;;;;;;;24.30;69.43;101023.41;5070861;28;20709;-75
2023/08/14 09:44:00;;;;;;;2.33;2.13;;;;;;;24.31;69.09;101009.97;5070868;28;20212;-75
2023/08/14 09:46:27;;;;;;;2.27;1.73;;;;;;;24.40;68.56;101021.84;5071126;28;20224;-75
2023/08/14 09:48:53;;;;;;;2.40;2.20;;;;;;;24.53;69.72;100996.03;5070789;28;20588;-74
2023/08/14 09:51:20;;;;;;;1.97;1.70;;;;;;;24.63;69.93;100976.72;5071161;28;20229;-74
2023/08/14 09:53:51;;;;;;;2.53;1.60;;;;;;;24.50;66.24;101095.03;5070726;28;20291;-75
2023/08/14 09:56:18;;;;;;;2.23;1.60;;;;;;;24.56;66.11;101089.28;5071286;28;20212;-75
2023/08/14 09:58:47;;;;;;;3.03;1.57;;;;;;;24.55;64.60;101102.72;5070170;28;20240;-75
2023/08/14 10:01:16;;;;;;;3.03;1.80;;;;;;;24.60;65.74;101105.94;5066100;28;20228;-75
2023/08/14 10:03:46;;;;;;;2.60;1.93;;;;;;;24.75;66.54;101106.69;5050848;28;20206;-76
2023/08/14 10:06:13;;;;;;;2.57;1.63;;;;;;;24.86;71.22;101007.19;5050126;28;20229;-76
2023/08/14 10:08:44;;;;;;;2.67;1.90;;;;;;;24.75;64.79;101048.81;5050616;28;20546;-76
2023/08/14 10:11:18;;;;;;;2.63;2.37;;;;;;;24.66;64.86;101094.84;5050677;28;20221;-78
2023/08/14 10:13:51;;;;;;;3.57;1.70;;;;;;;24.72;66.71;101069.53;5050534;28;20209;-76
2023/08/14 10:16:27;;;;;;;3.93;1.90;;;;;;;24.93;65.84;101073.38;5050584;28;20659;-76
2023/08/14 10:18:56;;;;;;;1.97;1.43;;;;;;;25.15;70.11;100994.41;5053591;28;20675;-77
2023/08/14 10:21:26;;;;;;;3.77;2.43;;;;;;;25.23;68.01;100964.50;5054865;28;20233;-77
2023/08/14 10:23:54;;;;;;;2.33;2.20;;;;;;;25.41;65.96;101032.69;5054354;28;20572;-75
2023/08/14 10:26:22;;;;;;;2.20;1.80;;;;;;;25.47;64.47;101063.44;5054547;28;20230;-75
2023/08/14 10:28:51;;;;;;;2.53;2.33;;;;;;;25.34;62.31;101135.63;5053429;28;20212;-74
2023/08/14 10:31:17;;;;;;;1.63;1.53;;;;;;;25.47;61.75;101176.59;5053652;28;20233;-75
2023/08/14 10:33:45;;;;;;;2.33;1.70;;;;;;;25.60;62.26;101179.25;5053532;28;20233;-75
2023/08/14 10:36:19;;;;;;;1.70;1.60;;;;;;;25.66;64.26;101146.72;5066038;28;20201;-74
2023/08/14 10:38:47;;;;;;;2.00;1.80;;;;;;;25.63;62.61;101154.97;5070586;28;20227;-74
2023/08/14 10:41:16;;;;;;;3.03;2.00;;;;;;;25.55;62.76;101149.31;5068094;28;20224;-75
2023/08/14 10:43:42;;;;;;;1.87;1.70;;;;;;;25.68;62.70;101170.69;5071769;28;20201;-75
2023/08/14 10:46:11;;;;;;;2.43;1.70;;;;;;;25.68;63.21;101160.81;5073231;28;20554;-76
2023/08/14 10:48:38;;;;;;;3.37;1.90;;;;;;;25.63;62.26;101180.84;5073712;28;20213;-75
2023/08/14 10:51:06;;;;;;;2.10;2.00;;;;;;;25.56;62.99;101130.47;5073756;28;20220;-75
2023/08/14 10:53:33;;;;;;;9.80;1.70;;;;;;;25.60;62.14;101165.88;5073912;28;20197;-75
2023/08/14 10:56:00;;;;;;;3.17;2.23;;;;;;;25.69;63.39;101124.25;5073472;28;20629;-76
2023/08/14 10:58:47;;;;;;;3.57;1.73;;;;;;;25.84;63.58;101157.06;5072789;28;20671;-76
2023/08/14 11:01:15;;;;;;;2.40;1.90;;;;;;;25.89;64.23;101007.81;5069375;28;20608;-75
2023/08/14 11:03:59;;;;;;;3.07;2.30;;;;;;;26.05;61.41;101094.00;5067069;28;20216;-75
2023/08/14 11:06:27;;;;;;;2.20;2.00;;;;;;;26.11;59.06;101195.25;5066980;28;20224;-76
2023/08/14 11:09:04;;;;;;;3.77;1.80;;;;;;;26.33;61.71;101186.50;5068065;28;20851;-76
2023/08/14 11:11:31;;;;;;;1.63;1.53;;;;;;;26.34;57.81;101211.44;5073479;28;20224;-76
2023/08/14 11:13:58;;;;;;;2.03;1.83;;;;;;;26.58;60.16;101223.97;5073065;28;20204;-76
2023/08/14 11:16:26;;;;;;;2.73;1.80;;;;;;;26.55;61.54;101193.78;5073583;28;20204;-77
2023/08/14 11:18:52;;;;;;;2.17;1.90;;;;;;;26.33;58.61;101234.69;5072142;28;20209;-77
2023/08/14 11:21:19;;;;;;;2.53;1.93;;;;;;;26.22;60.34;101217.69;5072298;28;20237;-76
2023/08/14 11:23:45;;;;;;;1.67;1.57;;;;;;;26.24;61.46;101191.66;5073170;28;20212;-75
2023/08/14 11:26:12;;;;;;;2.73;2.17;;;;;;;26.18;58.40;101200.97;5073385;28;20225;-77